logo
Rechercher aéroport 
image banner adimage banner adimage banner ad
image banner ad

SWRA - Fazenda Bela Vista

Situé à Nova Monte Verde, Brazil

ICAO - SWRA, IATA - AAI

Données fournies par Airmate  

Information générale

Coordonnées: S10°3'18" W56°59'30"
Élévation : 866 feet MSL.
Variation magnétique : -17.928892411° East
Voir autres Aéroports à Tocatins

Données opérationnelles

Special qualification required
Heure actuelle UTC:
Heure actuelle locale:
Météo à : - ( 0 km )
METAR: YPCC 172007Z AUTO 10013KT 6000 RA SCT013 SCT083 OVC110 25/24 Q1012
Voir NOTAMs / SUP AIP / TFR affectant cet aéroport [VIEW]
Fréquences de communication: [VIEW]

Pistes:

Identifiant RWYQFULongueur (ft)Largeur (ft)SurfaceLDA (ft)
02328159GRAVEL
20328159GRAVEL

Coordonnées de l'aéroport

Adresse: Nova Monte Verde Brazil

Vue satellite de SWRA